Impacts METAR Board
IDs:

KATL - Atlanta/Hartsfield-J, GA, US

Updated at: 0100 UTC 28 May 2018
Potential Impact None Slight Moderate High
Time 27/13Z 27/14Z 27/15Z 27/16Z 27/17Z 27/18Z 27/19Z 27/20Z 27/21Z 27/22Z 27/23Z 28/00Z 28/01Z
Temp74 77 79 80 80 81 82 83 82 81 79 77 76
Dewpt68 67 68 68 68 68 68 68 64 65 63 64 65
Altim29.98 29.98 29.99 29.99 29.97 29.95 29.94 29.92 29.91 29.90 29.90 29.90 29.92
VIS10 10 10 10 10 10 10 10 10 10 10 10 10
CIG75 250 200 22 28 40 200 40 200 200 200 180 110
CoverBKNBKNBKNBKNOVCOVCOVCOVCBKNBKNOVCOVCOVC
FltCatVFRVFRVFRMVFRMVFRVFRVFRVFRVFRVFRVFRVFRVFR
WX--------------------------
WDir1100120090801201001301009010090
WSpd5 4 7 6 9 8 9 10 10 10 15 12 10
WGst-- -- -- -- -- -- -- -- -- -- -- -- --
Raw hourly METARs
KATL 271252Z 11005KT 10SM FEW006 SCT031 BKN075 BKN130 BKN250 23/20 A2998 RMK AO2 SLP143 T02330200
KATL 271352Z VRB04KT 10SM SCT018 SCT080 SCT200 BKN250 25/19 A2998 RMK AO2 SLP142 T02500194
KATL 271452Z 12007KT 10SM SCT022 BKN200 BKN250 26/20 A2999 RMK AO2 SLP144 SCT022 V BKN T02610200 53003
KATL 271552Z VRB06KT 10SM BKN022 BKN200 BKN250 27/20 A2999 RMK AO2 SLP145 BKN022 V SCT T02670200
KATL 271652Z 09009KT 10SM BKN028 BKN040 OVC250 27/20 A2997 RMK AO2 SLP139 BKN028 V SCT T02670200
KATL 271752Z 08008KT 10SM SCT028 BKN040 OVC250 27/20 A2995 RMK AO2 SLP133 SCT028 V BKN TCU DSNT E & S T02720200 10278 20222 58011
KATL 271852Z 12009KT 10SM SCT028TCU SCT055 BKN200 OVC250 28/20 A2994 RMK AO2 SLP127 TCU W & DSNT ALQDS BINOVC T02780200
KATL 271952Z 10010KT 10SM SCT030TCU BKN040 BKN200 OVC250 28/20 A2992 RMK AO2 SLP121 BKN040 V SCT TCU W & DSNT ALQDS BINOVC T02830200
KATL 272052Z COR 13010KT 10SM SCT035TCU SCT150 BKN200 BKN250 28/18 A2991 RMK AO2 SLP119 TCU W & DSNT N MDT CU NW SHRA W T02780178 56014 $
KATL 272152Z 10010KT 10SM FEW022 FEW040 SCT140 BKN200 27/18 A2990 RMK AO2 SLP117 CB DSNT NW TCU DSNT NW-NE T02720183 $
KATL 272252Z 09015KT 10SM FEW038 SCT140 OVC200 26/17 A2990 RMK AO2 SLP117 CB DSNT NW TCU DSNT N T02610172 $
KATL 272352Z 10012KT 10SM FEW034 SCT130 OVC180 25/18 A2990 RMK AO2 SLP116 VIRGA SE-SW CB DSNT SE & NW T02500178 10283 20250 56003 $
KATL 280052Z 09010KT 10SM FEW030 SCT070 BKN110 OVC180 24/18 A2992 RMK AO2 SLP121 VIRGA OHD-ALQDS TCU DSNT SE-S T02440183 $



Page loaded:  01:33 UTC  |   06:33 PM Pacific  |   07:33 PM Mountain  |   08:33 PM Central  |   09:33 PM Eastern

 

ADVISORIES

FORECASTS

FORECASTS

OBSERVATIONS

USER TOOLS

ABOUT US